Time;durP1;ratioP1;P1;durP2;ratioP2;P2;SDS_P1;SDS_P2;PMS_P1;PMS_P2;Temp;Humidity;BMP_temperature;BMP_pressure;BME280_temperature;BME280_humidity;BME280_pressure;Samples;Min_cycle;Max_cycle;Signal;HPM_P1;HPM_P2
2022/04/16 00:22:28;;;;;;;3.55;2.20;;;;;;;;;;4492683;28;20085;-61
2022/04/16 00:24:54;;;;;;;3.75;2.55;;;;;;;;;;4200921;34;20090;-62
2022/04/16 00:27:20;;;;;;;3.05;2.55;;;;;;;;;;4204832;34;20185;-63
2022/04/16 00:29:46;;;;;;;2.65;2.35;;;;;;;;;;4204834;34;20125;-64
2022/04/16 00:32:12;;;;;;;5.97;2.42;;;;;;;;;;4204931;34;20113;-64
2022/04/16 00:34:38;;;;;;;3.70;1.80;;;;;;;;;;4180707;34;20125;-64
2022/04/16 00:37:04;;;;;;;4.32;1.75;;;;;;;;;;4191088;34;20501;-63
2022/04/16 00:39:30;;;;;;;2.55;1.95;;;;;;;;;;4191049;34;20189;-64
2022/04/16 00:41:56;;;;;;;2.35;1.80;;;;;;;;;;4192381;34;20148;-62
2022/04/16 00:44:23;;;;;;;2.37;2.17;;;;;;;;;;4190743;34;20213;-61
2022/04/16 00:46:50;;;;;;;4.28;2.05;;;;;;;;;;4190799;34;20503;-63
2022/04/16 00:49:16;;;;;;;2.08;1.75;;;;;;;;;;4177527;34;20188;-63
2022/04/16 00:51:48;;;;;;;4.85;1.80;;;;;;;;;;4190996;34;20193;-65
2022/04/16 00:54:14;;;;;;;2.40;1.90;;;;;;;;;;4190928;34;20098;-66
2022/04/16 00:56:40;;;;;;;2.42;2.00;;;;;;;;;;4178333;34;20105;-65
2022/04/16 00:59:06;;;;;;;2.58;1.85;;;;;;;;;;4203389;34;20541;-64
2022/04/16 01:01:32;;;;;;;2.10;1.60;;;;;;;;;;4204826;34;20133;-65
2022/04/16 01:03:59;;;;;;;3.92;2.05;;;;;;;;;;4204413;34;20458;-64
2022/04/16 01:06:48;;;;;;;2.95;2.08;;;;;;;;;;4204477;34;20217;-64
2022/04/16 01:09:15;;;;;;;4.68;1.90;;;;;;;;;;4204472;34;20105;-62
2022/04/16 01:11:41;;;;;;;2.83;2.10;;;;;;;;;;4204427;34;20125;-62
2022/04/16 01:14:07;;;;;;;3.15;1.80;;;;;;;;;;4204319;34;20459;-62
2022/04/16 01:16:34;;;;;;;4.45;2.00;;;;;;;;;;4204605;34;20201;-62
2022/04/16 01:19:01;;;;;;;2.22;1.60;;;;;;;;;;4191441;34;20541;-61
2022/04/16 01:21:28;;;;;;;2.65;1.87;;;;;;;;;;4204416;34;20213;-60
2022/04/16 01:23:54;;;;;;;2.53;1.60;;;;;;;;;;4204557;34;20181;-60
2022/04/16 01:26:22;;;;;;;2.92;1.80;;;;;;;;;;4218172;34;20128;-60
2022/04/16 01:28:48;;;;;;;2.50;1.80;;;;;;;;;;4218072;34;20171;-59
2022/04/16 01:31:14;;;;;;;2.72;1.80;;;;;;;;;;4218144;34;20121;-59
2022/04/16 01:33:40;;;;;;;3.65;2.03;;;;;;;;;;4218000;34;20129;-60
2022/04/16 01:36:06;;;;;;;5.05;2.00;;;;;;;;;;4218036;34;20108;-61
2022/04/16 01:38:32;;;;;;;2.95;1.87;;;;;;;;;;4217941;34;20289;-60
2022/04/16 01:40:58;;;;;;;6.12;1.90;;;;;;;;;;4217928;34;20208;-58
2022/04/16 01:43:25;;;;;;;2.30;2.00;;;;;;;;;;4217879;34;20136;-60
2022/04/16 01:45:51;;;;;;;6.35;1.85;;;;;;;;;;4204889;34;20120;-60
2022/04/16 01:48:18;;;;;;;4.82;2.03;;;;;;;;;;4218079;34;20207;-63
2022/04/16 01:50:48;;;;;;;5.47;1.92;;;;;;;;;;4218053;34;20754;-60
2022/04/16 01:53:16;;;;;;;3.37;1.80;;;;;;;;;;4217694;33;20120;-58
2022/04/16 01:55:42;;;;;;;5.00;2.30;;;;;;;;;;4217860;34;20560;-59
2022/04/16 01:58:08;;;;;;;3.22;1.90;;;;;;;;;;4215246;34;20134;-61
2022/04/16 02:00:35;;;;;;;4.12;2.05;;;;;;;;;;4204652;34;20109;-60
2022/04/16 02:03:01;;;;;;;3.70;2.40;;;;;;;;;;4205881;34;20104;-60
2022/04/16 02:05:27;;;;;;;3.10;2.10;;;;;;;;;;4205960;34;20096;-60
2022/04/16 02:07:54;;;;;;;3.08;2.20;;;;;;;;;;4205997;34;20100;-61
2022/04/16 02:10:20;;;;;;;3.08;2.10;;;;;;;;;;4205995;34;20102;-61
2022/04/16 02:12:46;;;;;;;3.50;2.15;;;;;;;;;;4206271;34;20598;-60
2022/04/16 02:15:12;;;;;;;3.72;2.00;;;;;;;;;;4206073;34;20165;-61
2022/04/16 02:17:39;;;;;;;5.28;2.10;;;;;;;;;;4205892;34;20522;-61
2022/04/16 02:20:07;;;;;;;10.30;2.37;;;;;;;;;;4204583;34;20149;-61
2022/04/16 02:22:43;;;;;;;2.35;1.83;;;;;;;;;;4205842;34;20115;-61
2022/04/16 02:25:10;;;;;;;8.02;2.40;;;;;;;;;;4196293;34;20117;-61
2022/04/16 02:27:36;;;;;;;3.40;2.55;;;;;;;;;;4219704;34;20101;-61
2022/04/16 02:30:07;;;;;;;4.75;3.12;;;;;;;;;;4210957;34;20173;-60
2022/04/16 02:32:41;;;;;;;5.00;2.80;;;;;;;;;;4202663;34;20113;-61
2022/04/16 02:35:08;;;;;;;10.07;3.05;;;;;;;;;;4202661;34;20197;-61
2022/04/16 02:37:34;;;;;;;4.57;3.15;;;;;;;;;;4196576;34;20209;-61
2022/04/16 02:40:01;;;;;;;3.03;2.25;;;;;;;;;;4191839;34;20717;-60
2022/04/16 02:42:27;;;;;;;3.47;2.72;;;;;;;;;;4192081;34;20190;-61
2022/04/16 02:47:37;;;;;;;3.08;2.53;;;;;;;;;;4191902;34;20228;-61
2022/04/16 02:50:03;;;;;;;4.32;2.67;;;;;;;;;;4191795;34;20734;-61
2022/04/16 02:52:36;;;;;;;8.45;2.70;;;;;;;;;;4192181;34;20126;-61
2022/04/16 02:55:04;;;;;;;4.28;2.67;;;;;;;;;;4191923;34;20090;-62
2022/04/16 02:57:33;;;;;;;2.70;2.40;;;;;;;;;;4178901;34;20194;-62
2022/04/16 02:59:59;;;;;;;4.62;2.55;;;;;;;;;;4191670;34;20503;-62
2022/04/16 03:02:25;;;;;;;3.70;2.28;;;;;;;;;;4191834;34;20218;-62
2022/04/16 03:04:51;;;;;;;3.53;2.40;;;;;;;;;;4191586;34;20478;-62
2022/04/16 03:07:18;;;;;;;3.72;2.30;;;;;;;;;;4191581;34;20106;-62
2022/04/16 03:09:44;;;;;;;4.22;2.08;;;;;;;;;;4191610;34;20266;-62
2022/04/16 03:12:10;;;;;;;2.28;1.80;;;;;;;;;;4191422;34;20160;-60
2022/04/16 03:17:34;;;;;;;4.45;2.00;;;;;;;;;;4191747;34;20110;-63
2022/04/16 03:20:04;;;;;;;3.85;2.25;;;;;;;;;;4191632;34;20547;-62
2022/04/16 03:22:34;;;;;;;2.65;2.10;;;;;;;;;;4191584;34;20297;-62
2022/04/16 03:25:09;;;;;;;2.65;1.90;;;;;;;;;;4196106;34;20526;-61
2022/04/16 03:27:39;;;;;;;2.67;1.83;;;;;;;;;;4217845;34;20113;-62
2022/04/16 03:30:06;;;;;;;3.72;2.15;;;;;;;;;;4219165;34;20116;-63
2022/04/16 03:32:32;;;;;;;4.47;2.08;;;;;;;;;;4219421;34;20308;-65
2022/04/16 03:34:58;;;;;;;3.58;1.92;;;;;;;;;;4219108;34;20968;-63
2022/04/16 03:37:30;;;;;;;4.78;2.03;;;;;;;;;;4219247;34;20117;-63
2022/04/16 03:39:56;;;;;;;2.45;2.00;;;;;;;;;;4219095;34;20133;-61
2022/04/16 03:42:22;;;;;;;2.65;1.80;;;;;;;;;;4219360;34;20196;-63
2022/04/16 03:44:48;;;;;;;2.45;2.00;;;;;;;;;;4218983;34;20541;-61
2022/04/16 03:47:14;;;;;;;2.20;1.83;;;;;;;;;;4219017;34;20201;-63
2022/04/16 03:49:40;;;;;;;2.37;1.70;;;;;;;;;;4218981;34;20099;-64
2022/04/16 03:52:06;;;;;;;3.47;1.83;;;;;;;;;;4218967;34;20620;-61
2022/04/16 04:00:03;;;;;;;2.12;1.80;;;;;;;;;;4218890;34;20129;-62
2022/04/16 04:02:39;;;;;;;4.53;2.00;;;;;;;;;;4206106;34;20151;-62
2022/04/16 04:05:06;;;;;;;2.53;1.60;;;;;;;;;;4216355;34;20113;-62
2022/04/16 04:07:32;;;;;;;2.60;1.60;;;;;;;;;;4179135;34;20121;-61
2022/04/16 04:09:59;;;;;;;3.87;1.83;;;;;;;;;;4203792;34;20117;-60
2022/04/16 04:12:25;;;;;;;3.37;2.30;;;;;;;;;;4204041;34;20089;-61
2022/04/16 04:14:51;;;;;;;4.37;1.90;;;;;;;;;;4202204;34;20202;-61
2022/04/16 04:17:18;;;;;;;2.90;1.62;;;;;;;;;;4188984;34;21370;-62
2022/04/16 04:19:45;;;;;;;2.35;1.95;;;;;;;;;;4200512;34;20198;-63
2022/04/16 04:22:14;;;;;;;4.28;2.03;;;;;;;;;;4187070;34;20845;-60
2022/04/16 04:24:40;;;;;;;2.87;1.92;;;;;;;;;;4201264;34;20721;-61
2022/04/16 04:27:07;;;;;;;2.45;2.00;;;;;;;;;;4188464;34;20194;-62
2022/04/16 04:29:34;;;;;;;3.60;1.70;;;;;;;;;;4203937;34;20134;-65
2022/04/16 04:32:00;;;;;;;2.37;1.62;;;;;;;;;;4191492;34;20176;-67
2022/04/16 04:34:26;;;;;;;3.08;1.80;;;;;;;;;;4191204;34;20188;-66
2022/04/16 04:36:52;;;;;;;2.37;1.90;;;;;;;;;;4201448;34;20207;-66
2022/04/16 04:39:18;;;;;;;2.87;2.25;;;;;;;;;;4204868;34;20149;-64
2022/04/16 04:41:46;;;;;;;2.12;1.92;;;;;;;;;;4203841;34;20552;-62
2022/04/16 04:44:15;;;;;;;2.70;2.08;;;;;;;;;;4204514;34;20090;-62
2022/04/16 04:46:42;;;;;;;3.15;2.03;;;;;;;;;;4204191;34;20233;-61
2022/04/16 04:49:08;;;;;;;2.03;1.83;;;;;;;;;;4203885;34;20104;-62
2022/04/16 04:51:41;;;;;;;2.75;1.73;;;;;;;;;;4201665;34;20089;-62
2022/04/16 04:54:08;;;;;;;3.58;1.67;;;;;;;;;;4190706;34;20121;-61
2022/04/16 04:56:35;;;;;;;1.83;1.65;;;;;;;;;;4190399;34;20542;-63
2022/04/16 04:59:01;;;;;;;6.45;2.10;;;;;;;;;;4203742;34;20122;-62
2022/04/16 05:01:27;;;;;;;8.68;2.10;;;;;;;;;;4190504;34;20093;-64
2022/04/16 05:03:53;;;;;;;5.47;1.92;;;;;;;;;;4200015;34;20143;-61
2022/04/16 05:06:19;;;;;;;2.33;1.60;;;;;;;;;;4202804;34;20106;-60
2022/04/16 05:08:44;;;;;;;2.08;1.70;;;;;;;;;;4203790;34;20462;-61
2022/04/16 05:11:11;;;;;;;3.35;1.67;;;;;;;;;;4201884;34;20121;-61
2022/04/16 05:13:37;;;;;;;2.70;1.58;;;;;;;;;;4191758;34;20144;-61
2022/04/16 05:16:03;;;;;;;1.95;1.60;;;;;;;;;;4203969;34;20597;-61
2022/04/16 05:18:29;;;;;;;3.37;1.52;;;;;;;;;;4204177;34;20122;-61
2022/04/16 05:20:55;;;;;;;2.62;1.62;;;;;;;;;;4204417;34;20132;-63
2022/04/16 05:23:21;;;;;;;2.05;1.70;;;;;;;;;;4194097;34;20453;-65
2022/04/16 05:25:47;;;;;;;1.70;1.60;;;;;;;;;;4197082;34;20443;-65
2022/04/16 05:28:13;;;;;;;3.95;2.15;;;;;;;;;;4203410;34;20116;-66
2022/04/16 05:30:44;;;;;;;3.53;1.87;;;;;;;;;;4199145;34;20200;-64
2022/04/16 05:35:59;;;;;;;4.30;1.80;;;;;;;;;;4202719;34;20226;-62
2022/04/16 05:38:25;;;;;;;3.72;1.70;;;;;;;;;;4204170;34;20125;-62
2022/04/16 05:40:51;;;;;;;1.98;1.60;;;;;;;;;;4204222;34;20474;-61
2022/04/16 05:43:17;;;;;;;3.37;1.60;;;;;;;;;;4195346;34;20210;-62
2022/04/16 05:45:44;;;;;;;1.90;1.40;;;;;;;;;;4191005;34;20109;-65
2022/04/16 05:48:10;;;;;;;2.70;1.80;;;;;;;;;;4203786;34;20653;-63
2022/04/16 05:50:37;;;;;;;2.60;1.75;;;;;;;;;;4202040;34;20094;-62
2022/04/16 05:53:06;;;;;;;2.53;1.85;;;;;;;;;;4185242;34;20151;-62
2022/04/16 05:55:34;;;;;;;1.55;1.45;;;;;;;;;;4191411;34;20221;-63
2022/04/16 05:58:00;;;;;;;2.85;1.67;;;;;;;;;;4203867;34;20133;-61
2022/04/16 06:00:27;;;;;;;3.90;1.80;;;;;;;;;;4191264;34;20094;-62
2022/04/16 06:02:54;;;;;;;2.12;1.70;;;;;;;;;;4191163;34;20098;-61
2022/04/16 06:05:21;;;;;;;2.08;1.30;;;;;;;;;;4203855;34;20540;-60
2022/04/16 06:07:47;;;;;;;2.45;1.60;;;;;;;;;;4195945;34;20428;-62
2022/04/16 06:10:13;;;;;;;3.60;1.70;;;;;;;;;;4199068;34;20132;-62
2022/04/16 06:12:41;;;;;;;3.35;1.50;;;;;;;;;;4189886;34;20130;-62
2022/04/16 06:15:08;;;;;;;2.28;1.70;;;;;;;;;;4194357;34;20212;-63
2022/04/16 06:17:34;;;;;;;2.97;1.80;;;;;;;;;;4193265;34;20165;-63
2022/04/16 06:20:00;;;;;;;4.47;1.70;;;;;;;;;;4204137;34;20105;-62
2022/04/16 06:22:27;;;;;;;1.90;1.45;;;;;;;;;;4215910;34;20144;-62
2022/04/16 06:24:52;;;;;;;1.40;1.30;;;;;;;;;;4204642;34;20090;-62
2022/04/16 06:27:18;;;;;;;2.92;1.60;;;;;;;;;;4217444;34;20181;-63
2022/04/16 06:29:44;;;;;;;2.35;2.00;;;;;;;;;;4205663;34;20126;-61
2022/04/16 06:32:10;;;;;;;3.35;1.67;;;;;;;;;;4201763;34;20113;-63
2022/04/16 06:34:36;;;;;;;1.55;1.45;;;;;;;;;;4200313;34;20193;-63
2022/04/16 06:37:02;;;;;;;3.47;1.52;;;;;;;;;;4189740;34;20249;-66
2022/04/16 06:39:28;;;;;;;2.22;1.80;;;;;;;;;;4198840;34;20101;-62
2022/04/16 06:41:54;;;;;;;2.62;1.90;;;;;;;;;;4197045;34;20549;-61
2022/04/16 06:44:20;;;;;;;2.35;1.70;;;;;;;;;;4201464;34;20129;-61
2022/04/16 06:46:46;;;;;;;1.80;1.60;;;;;;;;;;4203219;34;20561;-63
2022/04/16 06:49:12;;;;;;;4.20;1.90;;;;;;;;;;4203887;34;20548;-62
2022/04/16 06:51:38;;;;;;;4.30;1.80;;;;;;;;;;4205118;34;20461;-62
2022/04/16 06:54:04;;;;;;;3.15;1.30;;;;;;;;;;4204519;34;20121;-65
2022/04/16 06:56:30;;;;;;;3.17;1.75;;;;;;;;;;4204921;34;20189;-61
2022/04/16 06:58:56;;;;;;;1.52;1.40;;;;;;;;;;4192853;34;20169;-61
2022/04/16 07:01:22;;;;;;;5.62;1.80;;;;;;;;;;4205657;34;20184;-62
2022/04/16 07:03:48;;;;;;;4.05;1.83;;;;;;;;;;4205727;34;20145;-61
2022/04/16 07:06:14;;;;;;;1.52;1.40;;;;;;;;;;4205493;34;20528;-61
2022/04/16 07:08:40;;;;;;;1.80;1.42;;;;;;;;;;4205651;34;20202;-62
2022/04/16 07:11:06;;;;;;;2.50;2.03;;;;;;;;;;4205336;34;20547;-61
2022/04/16 07:13:32;;;;;;;1.55;1.45;;;;;;;;;;4192786;34;20087;-61
2022/04/16 07:15:57;;;;;;;5.22;2.80;;;;;;;;;;4205184;34;20098;-61
2022/04/16 07:18:25;;;;;;;2.00;1.80;;;;;;;;;;4194926;34;20073;-61
2022/04/16 07:20:51;;;;;;;3.95;1.70;;;;;;;;;;4206143;34;20115;-61
2022/04/16 07:23:17;;;;;;;2.12;1.73;;;;;;;;;;4219386;34;20446;-61
2022/04/16 07:25:43;;;;;;;1.90;1.50;;;;;;;;;;4219336;34;20105;-61
2022/04/16 07:28:11;;;;;;;9.75;2.62;;;;;;;;;;4219458;34;20121;-61
2022/04/16 07:30:37;;;;;;;4.57;1.50;;;;;;;;;;4219127;34;20093;-60
2022/04/16 07:33:03;;;;;;;1.70;1.60;;;;;;;;;;4219030;34;20109;-61
2022/04/16 07:35:29;;;;;;;1.67;1.30;;;;;;;;;;4219250;34;20090;-60
2022/04/16 07:37:58;;;;;;;1.75;1.62;;;;;;;;;;4217645;34;20111;-60
2022/04/16 07:40:25;;;;;;;8.15;2.75;;;;;;;;;;4206128;34;20117;-60
2022/04/16 07:42:51;;;;;;;1.73;1.40;;;;;;;;;;4219027;34;20121;-60
2022/04/16 07:45:17;;;;;;;2.20;1.55;;;;;;;;;;4219075;34;20201;-60
2022/04/16 07:47:43;;;;;;;13.20;1.73;;;;;;;;;;4206205;34;20521;-60
2022/04/16 07:50:11;;;;;;;6.87;1.58;;;;;;;;;;4218963;34;20228;-61
2022/04/16 07:52:37;;;;;;;1.45;1.33;;;;;;;;;;4219314;34;20122;-61
2022/04/16 07:55:03;;;;;;;1.75;1.33;;;;;;;;;;4219168;34;20144;-61
2022/04/16 07:57:29;;;;;;;6.80;2.58;;;;;;;;;;4219257;34;20120;-61
2022/04/16 07:59:55;;;;;;;6.87;1.80;;;;;;;;;;4218985;34;20184;-61
2022/04/16 08:02:21;;;;;;;4.12;1.52;;;;;;;;;;4217711;34;20188;-61
2022/04/16 08:04:47;;;;;;;4.68;1.60;;;;;;;;;;4219062;34;20433;-60
2022/04/16 08:07:13;;;;;;;4.15;1.30;;;;;;;;;;4218735;34;20117;-60
2022/04/16 08:09:39;;;;;;;1.67;1.50;;;;;;;;;;4218855;34;20477;-60
2022/04/16 08:12:05;;;;;;;11.32;1.55;;;;;;;;;;4219028;34;20196;-60
2022/04/16 08:14:32;;;;;;;2.72;2.40;;;;;;;;;;4218810;33;20113;-60
2022/04/16 08:16:58;;;;;;;1.65;1.50;;;;;;;;;;4218697;34;20525;-61
2022/04/16 08:19:25;;;;;;;2.12;1.80;;;;;;;;;;4217245;34;20117;-61
2022/04/16 08:21:53;;;;;;;3.17;1.80;;;;;;;;;;4218406;34;20482;-60
2022/04/16 08:24:38;;;;;;;1.85;1.62;;;;;;;;;;4218644;34;20113;-61
2022/04/16 08:27:05;;;;;;;2.33;1.60;;;;;;;;;;4218581;34;20193;-61
2022/04/16 08:29:32;;;;;;;2.40;1.90;;;;;;;;;;4218662;34;20117;-61
2022/04/16 08:31:58;;;;;;;2.12;1.85;;;;;;;;;;4218513;34;20507;-62
2022/04/16 08:34:24;;;;;;;6.70;1.67;;;;;;;;;;4218644;34;20109;-60
2022/04/16 08:36:51;;;;;;;2.00;1.80;;;;;;;;;;4205406;34;20208;-62
2022/04/16 08:39:16;;;;;;;1.75;1.65;;;;;;;;;;4218567;34;20423;-61
2022/04/16 08:41:42;;;;;;;2.47;1.87;;;;;;;;;;4218409;34;20147;-61
2022/04/16 08:44:09;;;;;;;2.15;1.70;;;;;;;;;;4218449;34;20129;-61
2022/04/16 08:46:36;;;;;;;3.25;1.50;;;;;;;;;;4218255;34;20110;-61
2022/04/16 08:49:02;;;;;;;1.83;1.50;;;;;;;;;;4218648;34;20193;-61
2022/04/16 08:51:29;;;;;;;7.97;2.50;;;;;;;;;;4218689;34;20101;-61
2022/04/16 08:53:55;;;;;;;2.90;1.77;;;;;;;;;;4205509;34;20109;-62
2022/04/16 08:56:21;;;;;;;3.05;2.17;;;;;;;;;;4218294;34;20118;-60
2022/04/16 08:58:47;;;;;;;3.65;2.08;;;;;;;;;;4218354;34;20204;-61
2022/04/16 09:01:13;;;;;;;3.28;1.83;;;;;;;;;;4218191;34;20551;-62
2022/04/16 09:03:40;;;;;;;2.78;2.00;;;;;;;;;;4218537;34;20103;-62
2022/04/16 09:06:07;;;;;;;5.55;1.90;;;;;;;;;;4216725;34;20112;-62
2022/04/16 09:08:34;;;;;;;1.95;1.60;;;;;;;;;;4208000;34;20177;-62
2022/04/16 09:11:08;;;;;;;5.20;2.15;;;;;;;;;;4190406;34;20129;-62
2022/04/16 09:13:34;;;;;;;2.70;1.90;;;;;;;;;;4201410;34;20118;-65
2022/04/16 09:16:06;;;;;;;3.55;2.20;;;;;;;;;;4198447;34;20125;-62
2022/04/16 09:18:55;;;;;;;5.40;2.15;;;;;;;;;;4189931;34;20568;-64
2022/04/16 09:21:25;;;;;;;3.40;2.08;;;;;;;;;;4196464;34;20136;-64
2022/04/16 09:23:57;;;;;;;3.10;2.10;;;;;;;;;;4195190;34;20177;-64
2022/04/16 09:26:33;;;;;;;4.37;2.80;;;;;;;;;;4198397;34;20133;-62
2022/04/16 09:29:04;;;;;;;;;;;;;;;;;;4199234;34;20640;-64
2022/04/16 09:31:32;;;;;;;2.25;2.05;;;;;;;;;;4198185;34;20015;-62
2022/04/16 09:33:58;;;;;;;2.60;2.15;;;;;;;;;;4185529;34;20562;-64
2022/04/16 09:36:27;;;;;;;3.25;2.05;;;;;;;;;;4185338;34;20121;-61
2022/04/16 09:39:04;;;;;;;3.22;2.08;;;;;;;;;;4198826;34;20126;-64
2022/04/16 09:41:34;;;;;;;3.97;2.08;;;;;;;;;;4201631;34;20124;-64
2022/04/16 09:44:03;;;;;;;4.62;2.85;;;;;;;;;;4178749;34;20145;-61
2022/04/16 09:46:31;;;;;;;4.43;2.20;;;;;;;;;;4201378;34;20128;-63
2022/04/16 09:49:01;;;;;;;4.30;2.00;;;;;;;;;;4190316;34;20106;-62
2022/04/16 09:51:27;;;;;;;4.37;2.75;;;;;;;;;;4198684;34;20118;-62
2022/04/16 09:53:54;;;;;;;3.65;2.40;;;;;;;;;;4200662;34;20469;-63
2022/04/16 09:56:20;;;;;;;3.62;2.45;;;;;;;;;;4199136;34;20634;-64
2022/04/16 09:58:52;;;;;;;6.43;2.80;;;;;;;;;;4188746;34;20133;-64
2022/04/16 10:01:20;;;;;;;5.10;2.55;;;;;;;;;;4201907;34;20120;-65
2022/04/16 10:03:47;;;;;;;1.85;1.67;;;;;;;;;;4204196;34;20096;-65
2022/04/16 10:06:13;;;;;;;2.10;1.73;;;;;;;;;;4190906;34;20118;-64
2022/04/16 10:08:39;;;;;;;4.28;2.42;;;;;;;;;;4203135;34;20137;-63
2022/04/16 10:11:06;;;;;;;4.43;2.72;;;;;;;;;;4189733;34;20117;-64
2022/04/16 10:13:39;;;;;;;4.37;2.25;;;;;;;;;;4201826;34;20580;-61
2022/04/16 10:16:19;;;;;;;3.08;2.25;;;;;;;;;;4190957;34;20101;-63
2022/04/16 10:18:45;;;;;;;4.32;2.80;;;;;;;;;;4190194;34;20101;-63
2022/04/16 10:21:15;;;;;;;3.37;2.47;;;;;;;;;;4187070;34;20129;-63
2022/04/16 10:23:41;;;;;;;5.95;3.12;;;;;;;;;;4198171;34;20109;-62
2022/04/16 10:26:10;;;;;;;5.80;3.60;;;;;;;;;;4204371;34;20158;-64
2022/04/16 10:28:38;;;;;;;3.62;2.90;;;;;;;;;;4204982;34;20117;-62
2022/04/16 10:31:08;;;;;;;4.40;2.70;;;;;;;;;;4199970;34;20101;-64
2022/04/16 10:33:34;;;;;;;7.85;3.83;;;;;;;;;;4202812;34;20097;-63
2022/04/16 10:36:09;;;;;;;9.98;3.35;;;;;;;;;;4191600;34;20140;-63
2022/04/16 10:38:37;;;;;;;6.55;2.50;;;;;;;;;;4203117;34;20551;-63
2022/04/16 10:41:10;;;;;;;5.72;2.95;;;;;;;;;;4204457;34;20126;-63
2022/04/16 10:43:36;;;;;;;4.03;2.70;;;;;;;;;;4188804;34;20108;-61
2022/04/16 10:46:06;;;;;;;3.42;2.72;;;;;;;;;;4204427;34;20133;-61
2022/04/16 10:48:34;;;;;;;5.65;3.47;;;;;;;;;;4204604;34;20090;-62
2022/04/16 10:51:01;;;;;;;4.75;3.55;;;;;;;;;;4202885;34;20546;-63
2022/04/16 10:53:34;;;;;;;5.05;3.60;;;;;;;;;;4204431;34;20117;-61
2022/04/16 10:56:29;;;;;;;4.65;3.60;;;;;;;;;;4203250;34;20102;-61
2022/04/16 10:59:01;;;;;;;4.43;3.20;;;;;;;;;;4195351;34;20496;-63
2022/04/16 11:01:30;;;;;;;5.30;2.95;;;;;;;;;;4204628;34;20132;-59
2022/04/16 11:03:56;;;;;;;30.98;5.10;;;;;;;;;;4204605;34;20125;-62
2022/04/16 11:06:33;;;;;;;4.82;3.37;;;;;;;;;;4191378;34;20204;-62
2022/04/16 11:08:59;;;;;;;13.93;3.20;;;;;;;;;;4191642;34;20109;-62
2022/04/16 11:11:25;;;;;;;5.85;3.08;;;;;;;;;;4203329;34;20140;-61
2022/04/16 11:13:51;;;;;;;3.92;2.40;;;;;;;;;;4204461;34;20097;-62
2022/04/16 11:16:23;;;;;;;7.60;3.55;;;;;;;;;;4204130;34;20530;-62
2022/04/16 11:18:50;;;;;;;5.65;3.20;;;;;;;;;;4205399;34;20114;-62
2022/04/16 11:21:23;;;;;;;10.07;3.37;;;;;;;;;;4204274;34;21103;-61
2022/04/16 11:23:52;;;;;;;7.32;3.35;;;;;;;;;;4202847;34;20449;-62
2022/04/16 11:34:35;;;;;;;7.93;4.10;;;;;;;;;;4202074;34;20128;-62
2022/04/16 11:37:01;;;;;;;8.18;4.07;;;;;;;;;;4202714;34;20121;-62
2022/04/16 11:39:30;;;;;;;11.50;3.87;;;;;;;;;;4204034;34;20583;-62
2022/04/16 11:41:57;;;;;;;6.10;3.60;;;;;;;;;;4202520;34;20113;-62
2022/04/16 11:44:30;;;;;;;10.60;4.32;;;;;;;;;;4203926;34;20113;-62
2022/04/16 11:46:56;;;;;;;9.98;3.55;;;;;;;;;;4201063;34;20554;-60
2022/04/16 11:49:22;;;;;;;6.78;3.90;;;;;;;;;;4204091;34;20197;-62
2022/04/16 11:51:48;;;;;;;6.93;4.12;;;;;;;;;;4191000;34;20146;-62
2022/04/16 11:54:15;;;;;;;8.85;4.50;;;;;;;;;;4191045;34;20129;-61
2022/04/16 11:56:49;;;;;;;7.35;4.03;;;;;;;;;;4190900;34;20126;-60
2022/04/16 11:59:23;;;;;;;10.02;5.50;;;;;;;;;;4204196;34;20121;-60
2022/04/16 12:01:59;;;;;;;7.40;4.78;;;;;;;;;;4203920;34;20144;-63
2022/04/16 12:04:34;;;;;;;11.55;5.28;;;;;;;;;;4201610;34;20130;-59
2022/04/16 12:07:00;;;;;;;12.32;5.40;;;;;;;;;;4202794;34;20106;-62
2022/04/16 12:09:26;;;;;;;26.95;6.25;;;;;;;;;;4203926;34;20132;-61
2022/04/16 12:11:55;;;;;;;8.68;5.07;;;;;;;;;;4204035;34;20122;-60
2022/04/16 12:14:23;;;;;;;8.50;5.32;;;;;;;;;;4201990;34;20120;-61
2022/04/16 12:17:00;;;;;;;8.20;4.70;;;;;;;;;;4203772;34;20121;-61
2022/04/16 12:19:31;;;;;;;9.13;5.37;;;;;;;;;;4191393;34;20193;-62
2022/04/16 12:21:58;;;;;;;11.23;5.35;;;;;;;;;;4203725;34;20205;-62
2022/04/16 12:24:28;;;;;;;12.48;6.37;;;;;;;;;;4203904;34;20527;-62
2022/04/16 12:26:58;;;;;;;10.30;5.75;;;;;;;;;;4203479;34;20190;-63
2022/04/16 12:29:29;;;;;;;12.70;5.90;;;;;;;;;;4202090;34;20120;-63
2022/04/16 12:31:57;;;;;;;9.13;5.43;;;;;;;;;;4201021;34;20118;-62
2022/04/16 12:34:23;;;;;;;9.20;5.37;;;;;;;;;;4200182;34;20613;-62
2022/04/16 12:36:49;;;;;;;10.43;4.90;;;;;;;;;;4197218;34;20127;-63
2022/04/16 12:39:15;;;;;;;11.77;4.65;;;;;;;;;;4198660;34;20755;-63
2022/04/16 12:41:41;;;;;;;11.55;4.30;;;;;;;;;;4195271;34;20128;-62
2022/04/16 12:44:07;;;;;;;7.45;4.62;;;;;;;;;;4195791;34;20208;-63
2022/04/16 12:46:33;;;;;;;11.32;5.47;;;;;;;;;;4195102;34;20629;-63
2022/04/16 12:48:59;;;;;;;5.75;4.75;;;;;;;;;;4196794;34;20193;-64
2022/04/16 12:51:26;;;;;;;8.23;3.87;;;;;;;;;;4197365;34;20200;-63
2022/04/16 12:53:53;;;;;;;19.85;5.30;;;;;;;;;;4197192;34;20114;-63
2022/04/16 12:56:19;;;;;;;7.70;4.85;;;;;;;;;;4195137;34;20121;-62
2022/04/16 12:58:45;;;;;;;11.95;4.95;;;;;;;;;;4196068;34;20113;-62
2022/04/16 13:01:11;;;;;;;9.68;5.05;;;;;;;;;;4197429;34;20560;-59
2022/04/16 13:03:37;;;;;;;9.57;4.90;;;;;;;;;;4196964;34;20217;-61
2022/04/16 13:06:03;;;;;;;13.50;5.28;;;;;;;;;;4183544;34;20213;-61
2022/04/16 13:08:30;;;;;;;27.90;6.97;;;;;;;;;;4197110;34;20636;-61
2022/04/16 13:10:56;;;;;;;6.60;4.03;;;;;;;;;;4195948;34;20129;-62
2022/04/16 13:13:25;;;;;;;6.97;4.35;;;;;;;;;;4196246;34;20110;-61
2022/04/16 13:15:51;;;;;;;6.97;3.97;;;;;;;;;;4197347;34;20141;-62
2022/04/16 13:18:17;;;;;;;6.20;4.00;;;;;;;;;;4198383;34;20097;-61
2022/04/16 13:20:43;;;;;;;7.75;4.07;;;;;;;;;;4199596;34;20137;-60
2022/04/16 13:23:09;;;;;;;10.93;4.80;;;;;;;;;;4201794;34;20196;-61
2022/04/16 13:25:35;;;;;;;10.25;4.60;;;;;;;;;;4203926;34;20556;-62
2022/04/16 13:28:01;;;;;;;7.12;3.97;;;;;;;;;;4203785;34;20184;-62
2022/04/16 13:30:28;;;;;;;12.70;5.57;;;;;;;;;;4203864;34;20109;-61
2022/04/16 13:32:54;;;;;;;13.18;4.57;;;;;;;;;;4203808;34;20090;-61
2022/04/16 13:35:20;;;;;;;10.85;5.35;;;;;;;;;;4190108;34;20117;-61
2022/04/16 13:37:46;;;;;;;14.98;4.87;;;;;;;;;;4202134;34;20133;-59
2022/04/16 13:42:57;;;;;;;13.03;5.37;;;;;;;;;;4195804;34;20521;-62
2022/04/16 13:45:22;;;;;;;10.88;5.18;;;;;;;;;;4202150;34;20173;-60
2022/04/16 13:47:48;;;;;;;10.75;4.68;;;;;;;;;;4194606;34;20107;-59
2022/04/16 13:50:14;;;;;;;12.50;5.15;;;;;;;;;;4191430;34;20133;-59
2022/04/16 13:52:40;;;;;;;12.57;4.93;;;;;;;;;;4203938;34;20125;-59
2022/04/16 13:55:08;;;;;;;14.18;5.20;;;;;;;;;;4193295;34;20134;-60
2022/04/16 13:57:34;;;;;;;12.60;5.28;;;;;;;;;;4191684;34;20513;-60
2022/04/16 14:00:00;;;;;;;13.13;4.72;;;;;;;;;;4200933;34;20193;-61
2022/04/16 14:02:26;;;;;;;13.98;5.18;;;;;;;;;;4203877;34;20451;-61
2022/04/16 14:07:37;;;;;;;11.38;4.40;;;;;;;;;;4204622;34;20141;-61
2022/04/16 14:10:03;;;;;;;12.65;4.62;;;;;;;;;;4192174;34;20636;-61
2022/04/16 14:12:29;;;;;;;10.00;4.82;;;;;;;;;;4205043;34;20094;-62
2022/04/16 14:14:55;;;;;;;7.35;4.03;;;;;;;;;;4205115;34;20093;-62
2022/04/16 14:17:21;;;;;;;11.35;4.18;;;;;;;;;;4205037;34;20197;-60
2022/04/16 14:19:47;;;;;;;8.77;4.30;;;;;;;;;;4206449;34;20185;-59
2022/04/16 14:22:13;;;;;;;8.77;3.03;;;;;;;;;;4204631;34;20210;-61
2022/04/16 14:24:39;;;;;;;5.95;3.15;;;;;;;;;;4203077;34;20192;-60
2022/04/16 14:27:05;;;;;;;7.05;2.83;;;;;;;;;;4191652;34;20609;-61
2022/04/16 14:29:32;;;;;;;7.50;3.28;;;;;;;;;;4204845;34;20153;-61
2022/04/16 14:31:59;;;;;;;4.25;2.97;;;;;;;;;;4202973;34;20094;-62
2022/04/16 14:34:25;;;;;;;10.07;5.30;;;;;;;;;;4204693;34;20124;-63
2022/04/16 14:36:51;;;;;;;4.70;2.62;;;;;;;;;;4204572;34;20117;-63
2022/04/16 14:39:17;;;;;;;6.10;3.12;;;;;;;;;;4191657;34;20116;-62
2022/04/16 14:41:44;;;;;;;9.32;4.55;;;;;;;;;;4204924;34;20141;-60
2022/04/16 14:44:10;;;;;;;10.57;6.03;;;;;;;;;;4205776;34;20508;-60
2022/04/16 14:46:36;;;;;;;10.70;5.82;;;;;;;;;;4205379;34;20555;-59
2022/04/16 14:49:04;;;;;;;14.02;6.10;;;;;;;;;;4205320;34;20125;-59
2022/04/16 14:51:33;;;;;;;20.60;6.90;;;;;;;;;;4205538;34;20133;-60
2022/04/16 14:54:02;;;;;;;20.65;7.95;;;;;;;;;;4205736;34;20213;-60
2022/04/16 14:56:28;;;;;;;21.73;7.62;;;;;;;;;;4198342;34;20126;-60
2022/04/16 14:58:56;;;;;;;24.98;8.70;;;;;;;;;;4198624;34;20091;-61
2022/04/16 15:01:22;;;;;;;30.83;8.05;;;;;;;;;;4202358;34;20537;-61
2022/04/16 15:03:48;;;;;;;32.25;7.05;;;;;;;;;;4205328;34;20112;-60
2022/04/16 15:06:14;;;;;;;5.57;3.25;;;;;;;;;;4205512;34;20113;-62
2022/04/16 15:08:40;;;;;;;15.73;4.68;;;;;;;;;;4204738;34;20121;-60
2022/04/16 15:11:07;;;;;;;15.88;4.43;;;;;;;;;;4179719;34;20121;-58
2022/04/16 15:13:33;;;;;;;9.52;4.47;;;;;;;;;;4201741;34;20102;-59
2022/04/16 15:15:58;;;;;;;18.12;3.75;;;;;;;;;;4205538;34;20126;-61
2022/04/16 15:18:24;;;;;;;21.08;5.62;;;;;;;;;;4208124;34;20106;-60
2022/04/16 15:20:51;;;;;;;3.45;1.98;;;;;;;;;;4219204;34;20105;-61
2022/04/16 15:23:17;;;;;;;16.33;5.43;;;;;;;;;;4219290;34;20093;-60
2022/04/16 15:25:46;;;;;;;8.20;4.18;;;;;;;;;;4219372;34;20197;-60
2022/04/16 15:28:13;;;;;;;5.70;3.05;;;;;;;;;;4219214;33;20674;-59
2022/04/16 15:30:39;;;;;;;6.75;3.20;;;;;;;;;;4219183;34;20489;-61